Time;durP1;ratioP1;P1;durP2;ratioP2;P2;SDS_P1;SDS_P2;PMS_P1;PMS_P2;Temp;Humidity;BMP_temperature;BMP_pressure;BME280_temperature;BME280_humidity;BME280_pressure;Samples;Min_cycle;Max_cycle;Signal;HPM_P1;HPM_P2
2023/03/12 00:00:07;;;;;;;9.57;5.57;;;0.20;99.90;;;-1.28;100.00;96961.88;4916918;29;20417;-72
2023/03/12 00:02:34;;;;;;;10.68;6.30;;;0.20;99.90;;;-1.27;100.00;96960.91;4916346;29;20464;-72
2023/03/12 00:04:59;;;;;;;10.50;5.55;;;0.20;99.90;;;-1.26;100.00;96956.50;4915443;29;20421;-72
2023/03/12 00:07:27;;;;;;;10.77;5.97;;;0.20;99.90;;;-1.24;100.00;96959.72;4916667;29;20439;-72
2023/03/12 00:09:53;;;;;;;12.15;6.43;;;0.20;99.90;;;-1.24;100.00;96962.31;4916611;29;20414;-72
2023/03/12 00:12:19;;;;;;;11.43;6.50;;;0.20;99.90;;;-1.21;100.00;96967.97;4916257;29;20417;-72
2023/03/12 00:14:44;;;;;;;16.77;6.63;;;0.30;99.90;;;-1.24;100.00;96963.13;4916484;29;20414;-72
2023/03/12 00:17:10;;;;;;;9.10;5.45;;;0.30;99.90;;;-1.27;100.00;96970.47;4916388;29;20427;-72
2023/03/12 00:19:36;;;;;;;10.20;5.53;;;0.20;99.90;;;-1.32;100.00;96967.66;4914217;29;20460;-72
2023/03/12 00:22:02;;;;;;;13.02;6.00;;;0.20;99.90;;;-1.33;100.00;96959.06;4915689;29;20488;-72
2023/03/12 00:24:29;;;;;;;8.18;5.55;;;0.10;99.90;;;-1.37;100.00;96963.03;4916466;29;20716;-72
2023/03/12 00:26:55;;;;;;;13.15;5.90;;;0.10;99.90;;;-1.37;100.00;96967.41;4916315;29;20436;-72
2023/03/12 00:29:21;;;;;;;14.37;5.80;;;0.10;99.90;;;-1.29;100.00;96965.50;4914783;29;20923;-72
2023/03/12 00:31:47;;;;;;;9.23;5.00;;;0.10;99.90;;;-1.41;100.00;96958.38;4915631;29;20405;-72
2023/03/12 00:34:13;;;;;;;10.85;5.25;;;0.10;99.90;;;-1.42;100.00;96961.94;4916206;29;20413;-72
2023/03/12 00:36:40;;;;;;;12.95;5.30;;;0.00;99.90;;;-1.49;100.00;96964.50;4916158;29;20500;-72
2023/03/12 00:39:06;;;;;;;12.20;6.07;;;0.00;99.90;;;-1.49;100.00;96963.69;4915991;29;20417;-72
2023/03/12 00:41:33;;;;;;;11.20;6.32;;;0.00;99.90;;;-1.47;100.00;96959.94;4915632;29;20776;-71
2023/03/12 00:43:59;;;;;;;14.33;5.97;;;0.00;99.90;;;-1.47;100.00;96952.13;4916133;29;20480;-72
2023/03/12 00:46:25;;;;;;;9.60;5.72;;;0.00;99.90;;;-1.47;100.00;96949.53;4916115;29;20963;-72
2023/03/12 00:48:51;;;;;;;8.88;5.63;;;0.00;99.90;;;-1.47;100.00;96953.94;4915955;29;20419;-72
2023/03/12 00:51:18;;;;;;;9.45;5.78;;;0.00;99.90;;;-1.45;100.00;96952.75;4915724;29;20417;-72
2023/03/12 00:53:44;;;;;;;13.60;6.40;;;0.00;99.90;;;-1.43;100.00;96947.38;4915684;29;20504;-72
2023/03/12 00:56:10;;;;;;;9.27;5.43;;;0.00;99.90;;;-1.39;100.00;96951.22;4915718;29;20416;-72
2023/03/12 00:58:37;;;;;;;11.47;5.20;;;0.00;99.90;;;-1.37;100.00;96944.84;4915678;29;20496;-72
2023/03/12 01:01:04;;;;;;;8.38;5.68;;;0.10;99.90;;;-1.35;100.00;96947.22;4915471;29;20451;-72
2023/03/12 01:03:30;;;;;;;10.77;5.30;;;0.10;99.90;;;-1.30;100.00;96953.50;4915454;29;20429;-72
2023/03/12 01:05:55;;;;;;;11.70;5.00;;;0.10;99.90;;;-1.27;100.00;96950.50;4915623;29;20779;-72
2023/03/12 01:08:22;;;;;;;13.63;5.80;;;0.20;99.90;;;-1.20;100.00;96950.56;4915632;29;20447;-72
2023/03/12 01:10:48;;;;;;;11.87;5.63;;;0.20;99.90;;;-1.26;100.00;96952.13;4915338;29;20934;-72
2023/03/12 01:13:15;;;;;;;11.30;5.18;;;0.20;99.90;;;-1.18;100.00;96952.00;4915084;29;20413;-72
2023/03/12 01:15:42;;;;;;;8.05;5.10;;;0.20;99.90;;;-1.24;100.00;96944.94;4915238;29;20787;-72
2023/03/12 01:18:08;;;;;;;7.43;5.15;;;0.20;99.90;;;-1.18;100.00;96951.19;4915333;29;20835;-72
2023/03/12 01:20:34;;;;;;;10.52;5.78;;;0.20;99.90;;;-1.11;100.00;96953.81;4915298;29;20420;-72
2023/03/12 01:23:00;;;;;;;10.60;5.80;;;0.30;99.90;;;-1.05;100.00;96955.69;4914517;29;20425;-72
2023/03/12 01:25:26;;;;;;;11.52;5.70;;;0.40;99.90;;;-1.02;100.00;96948.31;4915172;29;20565;-72
2023/03/12 01:27:52;;;;;;;8.40;5.25;;;0.40;99.90;;;-0.99;100.00;96947.16;4915140;29;20425;-72
2023/03/12 01:30:19;;;;;;;9.77;5.60;;;0.40;99.90;;;-0.95;100.00;96953.56;4913757;29;20431;-72
2023/03/12 01:32:46;;;;;;;9.90;5.88;;;0.50;99.90;;;-0.92;100.00;96948.00;4914693;29;20464;-72
2023/03/12 01:35:12;;;;;;;13.13;6.10;;;0.50;99.90;;;-0.85;100.00;96954.03;4915064;29;20837;-72
2023/03/12 01:37:38;;;;;;;8.02;4.85;;;0.50;99.90;;;-0.86;100.00;96947.22;4914958;29;20496;-72
2023/03/12 01:40:05;;;;;;;10.98;5.97;;;0.60;99.90;;;-0.85;100.00;96949.66;4914935;29;20775;-72
2023/03/12 01:42:31;;;;;;;17.15;5.18;;;0.60;99.90;;;-0.84;100.00;96950.44;4914370;29;20460;-72
2023/03/12 01:45:00;;;;;;;11.93;4.90;;;0.60;99.90;;;-0.83;100.00;96959.84;4914918;29;20460;-72
2023/03/12 01:47:27;;;;;;;7.55;5.28;;;0.60;99.90;;;-0.86;100.00;96955.03;4914874;29;20424;-70
2023/03/12 01:49:55;;;;;;;7.30;4.65;;;0.50;99.90;;;-0.82;100.00;96956.25;4914753;29;20791;-72
2023/03/12 01:52:26;;;;;;;8.38;4.43;;;0.60;99.90;;;-0.79;100.00;96948.88;4914400;29;20413;-72
2023/03/12 01:54:56;;;;;;;11.27;4.72;;;0.60;99.90;;;-0.75;100.00;96945.91;4914569;29;20417;-72
2023/03/12 01:57:27;;;;;;;9.45;4.22;;;0.60;99.90;;;-0.73;100.00;96954.28;4914767;29;20437;-72
2023/03/12 01:59:59;;;;;;;9.98;4.50;;;0.60;99.90;;;-0.70;100.00;96953.94;4914630;29;20413;-72
2023/03/12 02:02:27;;;;;;;7.15;4.57;;;0.70;99.90;;;-0.66;100.00;96953.34;4914160;29;20516;-72
2023/03/12 02:05:06;;;;;;;8.13;4.65;;;0.70;99.90;;;-0.61;100.00;96953.59;4914562;29;20415;-71
2023/03/12 02:07:34;;;;;;;10.05;4.85;;;0.70;99.90;;;-0.60;100.00;96946.59;4914421;29;20417;-71
2023/03/12 02:10:00;;;;;;;6.68;4.38;;;0.80;99.90;;;-0.61;100.00;96948.41;4914546;29;20445;-71
2023/03/12 02:12:26;;;;;;;9.60;4.57;;;0.80;99.90;;;-0.57;100.00;96948.81;4914100;29;20457;-71
2023/03/12 02:14:52;;;;;;;7.77;4.50;;;0.80;99.90;;;-0.56;100.00;96953.00;4914519;29;20492;-71
2023/03/12 02:17:18;;;;;;;8.38;4.78;;;0.80;99.90;;;-0.54;100.00;96954.44;4914445;29;20409;-71
2023/03/12 02:19:58;;;;;;;7.28;4.85;;;0.80;99.90;;;-0.54;100.00;96949.22;4914459;29;20561;-71
2023/03/12 02:22:25;;;;;;;8.93;5.00;;;0.90;99.90;;;-0.55;100.00;96946.81;4913786;29;20453;-71
2023/03/12 02:25:02;;;;;;;7.00;4.50;;;0.90;99.90;;;-0.57;100.00;96947.00;4913010;29;20788;-71
2023/03/12 02:27:32;;;;;;;6.88;4.65;;;0.90;99.90;;;-0.56;100.00;96940.81;4914316;29;20457;-71
2023/03/12 02:30:00;;;;;;;7.97;4.93;;;0.80;99.90;;;-0.58;100.00;96944.59;4914213;29;20413;-71
2023/03/12 02:32:32;;;;;;;12.63;5.53;;;0.80;99.90;;;-0.55;100.00;96941.63;4913897;29;20827;-71
2023/03/12 02:34:59;;;;;;;11.00;4.70;;;0.80;99.90;;;-0.59;100.00;96941.19;4914171;29;20434;-71
2023/03/12 02:37:25;;;;;;;10.02;5.00;;;0.80;99.90;;;-0.64;100.00;96938.38;4914151;29;20828;-71
2023/03/12 02:39:58;;;;;;;8.27;5.07;;;0.70;99.90;;;-0.64;100.00;96946.16;4914190;29;20409;-71
2023/03/12 02:42:25;;;;;;;8.45;5.18;;;0.70;99.90;;;-0.64;100.00;96946.16;4913229;29;20787;-71
2023/03/12 02:44:53;;;;;;;11.00;5.30;;;0.80;99.90;;;-0.66;100.00;96944.75;4913976;29;20504;-71
2023/03/12 02:47:19;;;;;;;9.90;4.73;;;0.70;99.90;;;-0.66;100.00;96937.75;4923804;29;20454;-71
2023/03/12 02:49:45;;;;;;;8.55;4.78;;;0.70;99.90;;;-0.70;100.00;96943.53;4932885;29;20465;-70
2023/03/12 02:52:11;;;;;;;6.93;4.95;;;0.70;99.90;;;-0.69;100.00;96947.75;4932551;29;20740;-71
2023/03/12 02:54:37;;;;;;;9.05;5.47;;;0.70;99.90;;;-0.66;100.00;96942.94;4932812;29;20482;-70
2023/03/12 02:57:03;;;;;;;13.90;5.90;;;0.70;99.90;;;-0.64;100.00;96946.16;4933011;29;20415;-70
2023/03/12 02:59:29;;;;;;;8.23;5.47;;;0.70;99.90;;;-0.67;100.00;96938.75;4932989;29;20459;-70
2023/03/12 03:01:59;;;;;;;11.35;5.45;;;0.70;99.90;;;-0.71;100.00;96940.13;4932327;29;20412;-70
2023/03/12 03:04:29;;;;;;;12.18;5.93;;;0.70;99.90;;;-0.73;100.00;96938.72;4932887;29;20482;-70
2023/03/12 03:06:55;;;;;;;12.95;6.03;;;0.60;99.90;;;-0.75;100.00;96930.31;4932918;29;20430;-70
2023/03/12 03:09:23;;;;;;;8.23;5.40;;;0.60;99.90;;;-0.81;100.00;96937.88;4932955;29;20415;-70
2023/03/12 03:11:49;;;;;;;9.55;5.55;;;0.60;99.90;;;-0.82;100.00;96936.25;4932389;29;20411;-70
2023/03/12 03:14:15;;;;;;;13.65;6.47;;;0.60;99.90;;;-0.80;100.00;96933.47;4932812;29;20911;-71
2023/03/12 03:16:41;;;;;;;10.27;6.55;;;0.60;99.90;;;-0.78;100.00;96926.28;4932802;29;20439;-70
2023/03/12 03:19:10;;;;;;;9.68;6.15;;;0.60;99.90;;;-0.73;100.00;96929.13;4932771;29;20913;-70
2023/03/12 03:21:36;;;;;;;9.02;6.10;;;0.70;99.90;;;-0.68;100.00;96921.56;4946744;23;20781;-74
2023/03/12 03:24:03;;;;;;;11.60;6.63;;;0.70;99.90;;;-0.63;100.00;96914.00;4932097;29;20512;-74
2023/03/12 03:26:29;;;;;;;11.15;6.30;;;0.80;99.90;;;-0.58;100.00;96910.81;4932628;29;20407;-74
2023/03/12 03:28:55;;;;;;;12.20;6.30;;;0.80;99.90;;;-0.53;100.00;96913.66;4925028;29;20809;-75
2023/03/12 03:31:21;;;;;;;9.50;6.20;;;0.80;99.90;;;-0.49;100.00;96917.44;4930944;29;20438;-74
2023/03/12 03:33:48;;;;;;;10.63;6.00;;;0.90;99.90;;;-0.43;100.00;96911.47;4913446;29;20975;-76
2023/03/12 03:36:15;;;;;;;12.00;6.30;;;0.90;99.90;;;-0.39;100.00;96920.50;4912139;29;20504;-76
2023/03/12 03:38:45;;;;;;;10.73;6.28;;;1.00;99.90;;;-0.31;100.00;96922.16;4913746;29;20416;-76
2023/03/12 03:41:11;;;;;;;10.38;6.65;;;1.00;99.90;;;-0.29;100.00;96917.53;4928176;29;20761;-76
2023/03/12 03:43:37;;;;;;;10.32;6.13;;;1.10;99.90;;;-0.27;100.00;96905.94;4920245;29;20434;-76
2023/03/12 03:46:05;;;;;;;10.63;6.20;;;1.10;99.90;;;-0.22;100.00;96911.34;4918287;29;20847;-76
2023/03/12 03:48:31;;;;;;;12.05;6.88;;;1.10;99.90;;;-0.16;100.00;96918.41;4913468;29;20410;-76
2023/03/12 03:50:59;;;;;;;8.30;6.43;;;1.20;99.90;;;-0.09;100.00;96918.44;4913395;29;20397;-76
2023/03/12 03:53:26;;;;;;;9.82;6.70;;;1.20;99.90;;;-0.05;100.00;96917.81;4913405;29;20413;-76
2023/03/12 03:55:52;;;;;;;9.07;6.50;;;1.30;99.90;;;0.00;100.00;96920.63;4915554;29;20417;-76
2023/03/12 03:58:18;;;;;;;14.80;7.22;;;1.30;99.90;;;0.04;100.00;96920.25;4916767;29;20787;-76
2023/03/12 04:00:44;;;;;;;11.87;7.03;;;1.40;99.90;;;0.07;100.00;96915.47;4916828;29;20420;-76
2023/03/12 04:03:10;;;;;;;15.07;6.90;;;1.40;99.90;;;0.06;100.00;96906.06;4916449;29;20508;-76
2023/03/12 04:05:36;;;;;;;12.07;6.45;;;1.40;99.90;;;0.08;100.00;96905.84;4916684;29;20409;-76
2023/03/12 04:08:03;;;;;;;11.65;6.97;;;1.40;99.90;;;0.10;100.00;96907.25;4916609;29;20414;-76
2023/03/12 04:10:30;;;;;;;11.88;7.10;;;1.40;99.90;;;0.08;100.00;96901.44;4916728;29;20420;-76
2023/03/12 04:12:56;;;;;;;12.68;6.35;;;1.40;99.90;;;0.10;100.00;96896.84;4916213;29;20452;-76
2023/03/12 04:15:23;;;;;;;11.18;7.15;;;1.40;99.90;;;0.19;100.00;96897.47;4916601;29;20499;-76
2023/03/12 04:17:49;;;;;;;15.13;8.10;;;1.50;99.90;;;0.19;100.00;96900.88;4916657;29;20879;-75
2023/03/12 04:20:15;;;;;;;13.25;6.75;;;1.50;99.90;;;0.20;100.00;96901.69;4916618;28;20474;-75
2023/03/12 04:22:41;;;;;;;11.55;7.45;;;1.50;99.90;;;0.24;100.00;96903.69;4914636;29;20444;-76
2023/03/12 04:25:08;;;;;;;16.13;6.80;;;1.50;99.90;;;0.25;100.00;96904.50;4916622;29;20930;-74
2023/03/12 04:27:35;;;;;;;12.57;6.87;;;1.50;99.90;;;0.25;100.00;96897.47;4916515;29;20409;-76
2023/03/12 04:30:01;;;;;;;13.63;7.03;;;1.50;99.90;;;0.26;100.00;96903.50;4916538;29;20791;-76
2023/03/12 04:32:27;;;;;;;11.38;7.22;;;1.50;99.90;;;0.29;100.00;96903.09;4916027;29;20405;-76
2023/03/12 04:34:53;;;;;;;15.00;6.32;;;1.60;99.90;;;0.30;100.00;96907.31;4916261;29;20489;-74
2023/03/12 04:37:19;;;;;;;13.13;6.38;;;1.60;99.90;;;0.32;100.00;96913.09;4916264;29;20441;-75
2023/03/12 04:39:45;;;;;;;12.35;6.13;;;1.60;99.90;;;0.27;100.00;96902.50;4916259;29;20512;-74
2023/03/12 04:42:11;;;;;;;9.83;5.70;;;1.50;99.90;;;0.30;100.00;96907.31;4915917;29;20977;-75
2023/03/12 04:44:39;;;;;;;13.48;6.78;;;1.60;99.90;;;0.28;100.00;96907.50;4915442;29;20417;-74
2023/03/12 04:47:06;;;;;;;11.60;6.70;;;1.60;99.90;;;0.34;100.00;96905.91;4916232;29;20504;-76
2023/03/12 04:49:31;;;;;;;13.50;6.70;;;1.60;99.90;;;0.38;100.00;96913.13;4915958;29;20837;-76
2023/03/12 04:51:57;;;;;;;11.35;6.80;;;1.70;99.90;;;0.43;100.00;96904.72;4915682;29;20417;-75
2023/03/12 04:54:23;;;;;;;11.75;6.25;;;1.70;99.90;;;0.43;100.00;96904.72;4931959;29;20462;-75
2023/03/12 04:56:50;;;;;;;8.85;6.47;;;1.70;99.90;;;0.47;100.00;96900.72;4934935;29;20914;-76
2023/03/12 04:59:16;;;;;;;12.60;7.15;;;1.70;99.90;;;0.54;100.00;96898.91;4934522;29;20435;-74
2023/03/12 05:01:43;;;;;;;14.25;7.40;;;1.80;99.90;;;0.55;100.00;96902.31;4934402;29;20412;-75
2023/03/12 05:04:09;;;;;;;11.63;6.75;;;1.80;99.90;;;0.61;100.00;96902.31;4933572;29;20424;-75
2023/03/12 05:06:35;;;;;;;10.93;6.60;;;1.80;99.90;;;0.60;100.00;96905.91;4934753;29;20822;-75
2023/03/12 05:09:02;;;;;;;12.05;6.82;;;1.80;99.90;;;0.66;100.00;96899.13;4934728;29;20435;-75
2023/03/12 05:11:29;;;;;;;9.98;6.38;;;1.90;99.90;;;0.64;100.00;96896.72;4934255;29;20419;-75
2023/03/12 05:13:55;;;;;;;11.40;6.68;;;1.90;99.90;;;0.66;100.00;96894.72;4934748;29;20411;-76
2023/03/12 05:16:21;;;;;;;14.25;6.63;;;1.90;99.90;;;0.70;100.00;96890.72;4934642;29;20407;-75
2023/03/12 05:18:48;;;;;;;10.57;6.38;;;2.00;99.90;;;0.76;100.00;96886.50;4934457;29;20918;-76
2023/03/12 05:21:18;;;;;;;11.07;6.20;;;2.00;99.90;;;0.76;100.00;96895.09;4934345;29;20482;-75
2023/03/12 05:23:45;;;;;;;12.32;7.30;;;2.00;99.90;;;0.84;100.00;96888.09;4934130;29;20431;-76
2023/03/12 05:26:20;;;;;;;14.52;7.45;;;2.10;99.90;;;0.83;100.00;96889.13;4934335;29;20419;-76
2023/03/12 05:28:46;;;;;;;11.07;6.20;;;2.10;99.90;;;0.81;100.00;96891.13;4934309;29;20426;-76
2023/03/12 05:31:13;;;;;;;12.55;6.78;;;2.10;99.90;;;0.79;100.00;96893.91;4934245;29;21020;-74
2023/03/12 05:33:40;;;;;;;13.13;6.72;;;2.10;99.90;;;0.74;100.00;96891.91;4934025;29;20407;-76
2023/03/12 05:36:08;;;;;;;11.70;6.75;;;2.00;99.90;;;0.75;100.00;96896.09;4934313;29;20493;-76
2023/03/12 05:38:35;;;;;;;10.55;6.97;;;2.00;99.90;;;0.74;100.00;96898.94;4934215;29;20494;-76
2023/03/12 05:41:13;;;;;;;10.35;6.88;;;2.00;99.90;;;0.77;100.00;96899.31;4922784;29;20427;-75
2023/03/12 05:43:39;;;;;;;10.85;7.22;;;2.00;99.90;;;0.77;100.00;96906.31;4913090;29;20840;-75
2023/03/12 05:46:05;;;;;;;14.05;7.72;;;2.00;99.90;;;0.77;100.00;96907.13;4914813;29;20496;-75
2023/03/12 05:48:31;;;;;;;13.47;7.97;;;2.10;99.90;;;0.81;100.00;96904.94;4932535;29;20447;-75
2023/03/12 05:50:57;;;;;;;11.27;7.30;;;2.10;99.90;;;0.83;100.00;96915.16;4933785;29;20886;-76
2023/03/12 05:53:24;;;;;;;11.90;7.50;;;2.10;99.90;;;0.84;100.00;96914.13;4933297;29;20411;-76
2023/03/12 05:55:50;;;;;;;12.52;7.28;;;2.10;99.90;;;0.84;100.00;96914.13;4933873;29;20485;-76
2023/03/12 05:58:20;;;;;;;12.73;8.20;;;2.10;99.90;;;0.84;100.00;96917.53;4933623;29;20420;-75
2023/03/12 06:00:46;;;;;;;13.43;8.73;;;2.10;99.90;;;0.85;100.00;96923.56;4933543;29;20457;-76
2023/03/12 06:03:13;;;;;;;12.85;7.50;;;2.10;99.90;;;0.87;100.00;96924.16;4932901;29;20534;-76
2023/03/12 06:05:38;;;;;;;12.73;7.90;;;2.10;99.90;;;0.88;100.00;96921.38;4933538;29;20415;-76
2023/03/12 06:08:06;;;;;;;12.57;8.10;;;2.10;99.90;;;0.90;100.00;96921.16;4933523;29;20423;-75
2023/03/12 06:10:33;;;;;;;11.88;7.97;;;2.20;99.90;;;0.92;100.00;96914.75;4907715;29;20783;-75
2023/03/12 06:12:59;;;;;;;10.87;7.53;;;2.20;99.90;;;0.96;100.00;96912.53;4909763;29;20402;-75
2023/03/12 06:15:25;;;;;;;14.75;8.60;;;2.20;99.90;;;0.96;100.00;96915.16;4914920;29;20976;-75
2023/03/12 06:17:51;;;;;;;15.25;7.82;;;2.20;99.90;;;0.98;100.00;96923.53;4907217;29;20419;-75
2023/03/12 06:20:17;;;;;;;14.10;9.32;;;2.20;99.90;;;0.97;100.00;96909.75;4905814;29;20457;-75
2023/03/12 06:22:43;;;;;;;11.18;8.43;;;2.20;99.90;;;0.99;100.00;96912.13;4905940;29;20513;-74
2023/03/12 06:25:09;;;;;;;22.20;10.10;;;2.20;99.90;;;0.96;100.00;96909.94;4906246;29;20509;-72
2023/03/12 06:27:37;;;;;;;12.88;8.35;;;2.20;99.90;;;0.97;100.00;96911.53;4907235;29;20436;-73
2023/03/12 06:30:04;;;;;;;14.67;9.17;;;2.20;99.90;;;1.00;100.00;96906.72;4907428;29;20416;-74
2023/03/12 06:32:30;;;;;;;15.40;9.40;;;2.30;99.90;;;1.03;100.00;96908.13;4905811;29;20415;-74
2023/03/12 06:34:56;;;;;;;17.77;9.83;;;2.30;99.90;;;1.06;100.00;96905.91;4906052;29;20415;-74
2023/03/12 06:37:22;;;;;;;17.48;10.25;;;2.30;99.90;;;1.10;100.00;96907.13;4912960;29;20415;-74
2023/03/12 06:39:48;;;;;;;17.48;10.30;;;2.30;99.90;;;1.13;100.00;96901.47;4910059;29;20532;-76
2023/03/12 06:42:14;;;;;;;21.80;11.68;;;2.30;99.90;;;1.08;100.00;96895.28;4907560;29;20448;-75
2023/03/12 06:44:41;;;;;;;19.25;10.60;;;2.30;99.90;;;0.99;100.00;96904.31;4908377;29;20503;-76
2023/03/12 06:47:07;;;;;;;25.38;10.55;;;2.20;99.90;;;0.95;100.00;96897.91;4906688;29;20944;-77
2023/03/12 06:49:34;;;;;;;17.17;10.77;;;2.10;99.90;;;0.91;100.00;96894.09;4908937;29;20421;-76
2023/03/12 06:52:00;;;;;;;20.48;10.80;;;2.10;99.90;;;0.94;100.00;96898.91;4914342;29;20419;-77
2023/03/12 06:54:26;;;;;;;21.02;10.82;;;2.10;99.90;;;0.88;100.00;96900.53;4904385;29;20417;-76
2023/03/12 06:56:52;;;;;;;20.90;11.00;;;2.10;99.90;;;0.94;100.00;96898.91;4904556;29;20857;-77
2023/03/12 06:59:20;;;;;;;16.95;10.60;;;2.10;99.90;;;0.97;100.00;96911.53;4906829;29;20519;-76
2023/03/12 07:01:48;;;;;;;20.42;11.23;;;2.20;99.90;;;0.98;100.00;96906.09;4909135;29;20496;-77
2023/03/12 07:04:14;;;;;;;25.90;11.73;;;2.20;99.90;;;0.99;100.00;96910.31;4916661;29;20425;-77
2023/03/12 07:06:40;;;;;;;20.15;11.18;;;2.20;99.90;;;1.02;100.00;96914.34;4932623;29;20412;-77
2023/03/12 07:09:05;;;;;;;18.20;11.35;;;2.20;99.90;;;1.13;100.00;96901.47;4932694;29;20506;-77
2023/03/12 07:11:32;;;;;;;22.23;12.70;;;2.30;99.90;;;1.14;100.00;96908.28;4932470;29;20416;-76
2023/03/12 07:13:57;;;;;;;21.35;12.00;;;2.30;99.90;;;1.17;100.00;96905.28;4932789;29;20744;-77
2023/03/12 07:16:23;;;;;;;21.67;12.13;;;2.40;99.90;;;1.12;100.00;96906.91;4932668;29;20426;-76
2023/03/12 07:18:51;;;;;;;21.17;12.77;;;2.30;99.90;;;1.09;100.00;96909.91;4932690;29;20491;-76
2023/03/12 07:21:21;;;;;;;26.10;13.02;;;2.30;99.90;;;1.05;100.00;96914.72;4932627;29;20475;-76
2023/03/12 07:23:47;;;;;;;22.33;13.53;;;2.30;99.90;;;1.04;100.00;96913.16;4930725;29;20507;-75
2023/03/12 07:26:13;;;;;;;27.23;14.50;;;2.30;99.90;;;1.09;100.00;96917.75;4905366;29;20508;-75
2023/03/12 07:28:39;;;;;;;30.77;14.75;;;2.30;99.90;;;1.15;100.00;96912.50;4911697;29;20964;-74
2023/03/12 07:31:05;;;;;;;23.35;14.25;;;2.40;99.90;;;1.28;100.00;96916.13;4927837;29;20469;-74
2023/03/12 07:33:32;;;;;;;33.03;16.67;;;2.50;99.90;;;1.39;100.00;96913.66;4911031;29;20464;-74
2023/03/12 07:35:59;;;;;;;23.55;14.15;;;2.60;99.90;;;1.50;100.00;96920.06;4927843;29;20408;-75
2023/03/12 07:38:26;;;;;;;26.65;14.73;;;2.70;99.90;;;1.64;100.00;96913.00;4936169;29;20415;-73
2023/03/12 07:40:53;;;;;;;22.23;14.23;;;2.80;99.90;;;1.74;100.00;96905.53;4936081;29;20789;-75
2023/03/12 07:43:20;;;;;;;23.88;14.30;;;2.90;99.90;;;1.82;100.00;96907.91;4928308;29;20500;-75
2023/03/12 07:45:46;;;;;;;29.17;14.95;;;3.00;99.90;;;1.93;100.00;96908.06;4904760;29;20423;-74
2023/03/12 07:48:12;;;;;;;25.27;14.07;;;3.10;99.90;;;2.15;100.00;96905.13;4897933;29;20430;-75
2023/03/12 07:50:38;;;;;;;19.35;11.70;;;3.30;99.90;;;2.17;100.00;96896.09;4898200;29;20450;-75
2023/03/12 07:53:05;;;;;;;27.27;12.65;;;3.30;99.90;;;2.19;100.00;96904.50;4897970;29;20421;-76
2023/03/12 07:55:32;;;;;;;20.00;10.70;;;3.30;99.90;;;2.32;100.00;96895.81;4896857;29;20475;-75
2023/03/12 07:57:59;;;;;;;21.27;11.50;;;3.50;99.90;;;2.38;100.00;96897.56;4898120;29;20565;-74
2023/03/12 08:00:26;;;;;;;17.53;9.97;;;3.50;99.90;;;2.56;100.00;96904.66;4897963;29;20446;-75
2023/03/12 08:02:52;;;;;;;12.30;8.60;;;3.70;99.90;;;2.80;100.00;96909.09;4897573;29;20473;-76
2023/03/12 08:05:19;;;;;;;14.07;8.45;;;3.90;99.90;;;3.01;100.00;96905.31;4898013;29;20410;-75
2023/03/12 08:07:45;;;;;;;15.07;9.07;;;4.10;99.90;;;3.08;100.00;96909.47;4897983;29;20582;-75
2023/03/12 08:10:12;;;;;;;16.75;8.75;;;4.30;99.90;;;3.14;100.00;96896.56;4897866;29;20490;-75
2023/03/12 08:12:38;;;;;;;21.10;9.27;;;4.20;99.90;;;3.09;100.00;96897.19;4901175;29;20793;-75
2023/03/12 08:15:05;;;;;;;14.82;8.90;;;4.20;99.90;;;2.93;100.00;96895.16;4906582;29;20916;-74
2023/03/12 08:17:31;;;;;;;16.58;8.55;;;4.00;99.90;;;2.75;100.00;96900.31;4910913;29;20498;-75
2023/03/12 08:20:17;;;;;;;14.83;8.70;;;3.90;99.90;;;2.72;100.00;96904.16;4906568;29;20921;-75
2023/03/12 08:22:43;;;;;;;16.23;8.85;;;3.80;99.90;;;2.73;100.00;96905.75;4911705;29;20506;-74
2023/03/12 08:25:10;;;;;;;12.68;8.45;;;3.80;99.90;;;2.78;100.00;96913.78;4921520;29;20909;-75
2023/03/12 08:27:37;;;;;;;19.60;9.35;;;3.90;99.90;;;2.69;100.00;96913.22;4923476;29;20776;-73
2023/03/12 08:30:05;;;;;;;18.48;10.57;;;3.90;99.90;;;2.82;100.00;96907.09;4905124;29;20423;-74
2023/03/12 08:32:31;;;;;;;14.82;9.65;;;3.90;99.90;;;2.88;100.00;96916.69;4908714;29;20444;-74
2023/03/12 08:34:57;;;;;;;17.43;9.80;;;4.00;99.90;;;2.78;100.00;96919.00;4908385;29;20425;-75
2023/03/12 08:37:23;;;;;;;18.90;9.80;;;3.90;99.90;;;2.68;100.00;96921.28;4907278;29;20497;-74
2023/03/12 08:39:48;;;;;;;20.10;10.98;;;3.80;99.90;;;2.80;100.00;96922.19;4904051;29;20823;-75
2023/03/12 08:42:14;;;;;;;23.27;11.13;;;3.90;99.90;;;2.79;100.00;96928.41;4911054;29;20421;-75
2023/03/12 08:44:42;;;;;;;21.40;11.73;;;3.90;99.90;;;2.80;100.00;96919.56;4916244;29;20413;-74
2023/03/12 08:47:07;;;;;;;19.55;11.00;;;3.90;99.90;;;2.95;100.00;96920.03;4916303;29;20472;-74
2023/03/12 08:49:33;;;;;;;23.75;12.35;;;4.00;99.90;;;3.08;100.00;96921.75;4917504;29;20421;-75
2023/03/12 08:52:00;;;;;;;23.73;11.23;;;4.20;99.90;;;3.07;100.00;96928.81;4934887;29;20455;-74
2023/03/12 08:54:25;;;;;;;17.20;10.32;;;4.20;99.90;;;3.24;100.00;96925.63;4935249;29;20443;-75
2023/03/12 08:56:52;;;;;;;19.15;9.75;;;4.30;99.90;;;3.34;100.00;96931.97;4935160;29;20415;-74
2023/03/12 08:59:19;;;;;;;22.50;11.57;;;4.40;99.90;;;3.38;100.00;96925.28;4934950;29;20455;-75
2023/03/12 09:01:46;;;;;;;18.50;10.13;;;4.50;99.90;;;3.50;100.00;96914.91;4934755;29;20438;-75
2023/03/12 09:04:12;;;;;;;16.67;9.67;;;4.60;99.90;;;3.61;100.00;96914.16;4934914;29;20874;-75
2023/03/12 09:06:38;;;;;;;17.58;9.13;;;4.70;99.90;;;3.73;100.00;96925.53;4933596;29;20579;-74
2023/03/12 09:09:07;;;;;;;17.75;10.38;;;4.80;99.90;;;3.83;100.00;96917.16;4934873;29;20412;-74
2023/03/12 09:11:35;;;;;;;22.05;10.88;;;4.90;99.90;;;3.69;100.00;96915.69;4934514;29;20441;-75
2023/03/12 09:14:01;;;;;;;17.63;10.40;;;4.80;99.90;;;3.60;100.00;96912.59;4934772;29;20440;-75
2023/03/12 09:16:28;;;;;;;19.35;11.10;;;4.70;99.90;;;3.62;100.00;96918.38;4934740;29;20420;-75
2023/03/12 09:18:56;;;;;;;21.47;11.27;;;4.70;99.90;;;3.65;100.00;96917.16;4920629;29;20419;-75
2023/03/12 09:21:22;;;;;;;20.33;10.85;;;4.70;99.90;;;3.79;100.00;96924.66;4906018;29;20417;-76
2023/03/12 09:23:48;;;;;;;17.73;10.65;;;4.90;99.90;;;3.96;100.00;96929.28;4926899;23;20452;-72
2023/03/12 09:26:14;;;;;;;19.13;10.60;;;5.00;99.90;;;4.05;100.00;96922.75;4915097;29;20782;-73
2023/03/12 09:28:41;;;;;;;18.75;9.75;;;5.10;99.90;;;4.32;100.00;96925.78;4914968;29;20417;-73
2023/03/12 09:31:07;;;;;;;12.83;8.60;;;5.30;99.90;;;4.41;100.00;96932.31;4914247;29;20416;-73
2023/03/12 09:33:34;;;;;;;15.05;8.93;;;5.40;99.90;;;4.51;100.00;96935.22;4912882;29;20926;-77
2023/03/12 09:36:02;;;;;;;15.40;9.07;;;5.50;99.90;;;4.48;100.00;96931.22;4913551;29;20417;-77
2023/03/12 09:38:30;;;;;;;14.00;7.97;;;5.60;99.90;;;4.68;100.00;96936.16;4919017;29;20511;-72
2023/03/12 09:40:57;;;;;;;14.70;8.23;;;5.70;99.90;;;4.82;100.00;96939.38;4914913;29;20953;-72
2023/03/12 09:43:31;;;;;;;14.38;8.15;;;5.90;99.90;;;4.85;100.00;96938.94;4928511;29;20976;-71
2023/03/12 09:45:57;;;;;;;12.07;6.90;;;5.90;99.90;;;5.15;100.00;96941.47;4934140;29;20403;-71
2023/03/12 09:48:31;;;;;;;12.48;7.07;;;6.00;99.90;;;5.09;100.00;96951.06;4934239;29;20463;-71
2023/03/12 09:51:00;;;;;;;12.43;7.15;;;6.20;99.90;;;5.23;100.00;96951.66;4934146;29;20423;-71
2023/03/12 09:53:33;;;;;;;11.48;6.45;;;6.20;99.90;;;5.20;100.00;96938.97;4933825;29;20908;-72
2023/03/12 09:56:09;;;;;;;9.60;6.33;;;6.20;99.90;;;5.52;100.00;96942.84;4934197;29;20524;-70
2023/03/12 09:58:37;;;;;;;9.77;5.77;;;6.40;99.90;;;5.41;100.00;96941.81;4933878;29;20466;-71
2023/03/12 10:01:28;;;;;;;8.02;5.50;;;6.50;99.90;;;5.70;100.00;96942.72;4934047;29;20408;-71
2023/03/12 10:04:08;;;;;;;7.95;4.80;;;6.70;99.90;;;6.05;100.00;96953.19;4933773;29;20478;-71
2023/03/12 10:06:40;;;;;;;6.85;5.03;;;6.90;99.90;;;6.05;100.00;96953.19;4932483;29;20506;-71
2023/03/12 10:09:22;;;;;;;7.00;4.63;;;7.00;99.90;;;6.28;100.00;96954.16;4914880;29;20441;-71
2023/03/12 10:11:57;;;;;;;16.65;5.57;;;7.20;99.90;;;6.48;100.00;96960.56;4914497;29;20468;-73
2023/03/12 10:14:41;;;;;;;6.38;4.80;;;7.40;99.90;;;6.55;100.00;96955.97;4914771;29;20545;-71
2023/03/12 10:17:36;;;;;;;6.05;4.40;;;7.40;99.90;;;6.84;100.00;96954.09;4914747;29;20409;-73